sensor_id;sensor_type;location;lat;lon;timestamp;temperature;humidity
6948;DHT22;3513;47.664;9.162;2023-02-11T00:01:48;-2.20;99.90
6948;DHT22;3513;47.664;9.162;2023-02-11T00:04:14;-2.20;99.90
6948;DHT22;3513;47.664;9.162;2023-02-11T00:06:40;-2.10;99.90
6948;DHT22;3513;47.664;9.162;2023-02-11T00:09:06;-2.10;99.90
6948;DHT22;3513;47.664;9.162;2023-02-11T00:11:31;-2.20;99.90
6948;DHT22;3513;47.664;9.162;2023-02-11T00:14:03;-2.20;99.90
6948;DHT22;3513;47.664;9.162;2023-02-11T00:16:29;-2.10;99.90
6948;DHT22;3513;47.664;9.162;2023-02-11T00:18:58;-2.10;99.90
6948;DHT22;3513;47.664;9.162;2023-02-11T00:21:25;-2.00;99.90
6948;DHT22;3513;47.664;9.162;2023-02-11T00:23:51;-2.00;99.90
6948;DHT22;3513;47.664;9.162;2023-02-11T00:26:23;-2.00;99.90
6948;DHT22;3513;47.664;9.162;2023-02-11T00:28:50;-2.00;99.90
6948;DHT22;3513;47.664;9.162;2023-02-11T00:31:17;-2.10;99.90
6948;DHT22;3513;47.664;9.162;2023-02-11T00:33:44;-2.20;99.90
6948;DHT22;3513;47.664;9.162;2023-02-11T00:36:13;-2.30;99.90
6948;DHT22;3513;47.664;9.162;2023-02-11T00:38:41;-2.40;99.90
6948;DHT22;3513;47.664;9.162;2023-02-11T00:41:07;-2.50;99.90
6948;DHT22;3513;47.664;9.162;2023-02-11T00:43:33;-2.60;99.90
6948;DHT22;3513;47.664;9.162;2023-02-11T00:45:59;-2.60;99.90
6948;DHT22;3513;47.664;9.162;2023-02-11T00:48:25;-2.70;99.90
6948;DHT22;3513;47.664;9.162;2023-02-11T00:50:50;-2.70;99.90
6948;DHT22;3513;47.664;9.162;2023-02-11T00:53:16;-2.70;99.90
6948;DHT22;3513;47.664;9.162;2023-02-11T00:55:41;-2.70;99.90
6948;DHT22;3513;47.664;9.162;2023-02-11T00:58:07;-2.70;99.90
6948;DHT22;3513;47.664;9.162;2023-02-11T01:00:32;-2.70;99.90
6948;DHT22;3513;47.664;9.162;2023-02-11T01:02:58;-2.70;99.90
6948;DHT22;3513;47.664;9.162;2023-02-11T01:05:24;-2.70;99.90
6948;DHT22;3513;47.664;9.162;2023-02-11T01:07:49;-2.70;99.90
6948;DHT22;3513;47.664;9.162;2023-02-11T01:10:15;-2.70;99.90
6948;DHT22;3513;47.664;9.162;2023-02-11T01:12:41;-2.70;99.90
6948;DHT22;3513;47.664;9.162;2023-02-11T01:15:07;-2.70;99.90
6948;DHT22;3513;47.664;9.162;2023-02-11T01:17:34;-2.70;99.90
6948;DHT22;3513;47.664;9.162;2023-02-11T01:20:05;-2.70;99.90
6948;DHT22;3513;47.664;9.162;2023-02-11T01:22:31;-2.70;99.90
6948;DHT22;3513;47.664;9.162;2023-02-11T01:24:59;-2.80;99.90
6948;DHT22;3513;47.664;9.162;2023-02-11T01:27:24;-2.80;99.90
6948;DHT22;3513;47.664;9.162;2023-02-11T01:29:50;-2.80;99.90
6948;DHT22;3513;47.664;9.162;2023-02-11T01:32:16;-2.80;99.90
6948;DHT22;3513;47.664;9.162;2023-02-11T01:34:41;-2.80;99.90
6948;DHT22;3513;47.664;9.162;2023-02-11T01:37:08;-2.80;99.90
6948;DHT22;3513;47.664;9.162;2023-02-11T01:39:34;-2.80;99.90
6948;DHT22;3513;47.664;9.162;2023-02-11T01:42:00;-2.70;99.90
6948;DHT22;3513;47.664;9.162;2023-02-11T01:44:31;-2.70;99.90
6948;DHT22;3513;47.664;9.162;2023-02-11T01:46:57;-2.60;99.90
6948;DHT22;3513;47.664;9.162;2023-02-11T01:49:29;-2.60;99.90
6948;DHT22;3513;47.664;9.162;2023-02-11T01:52:20;-2.60;99.90
6948;DHT22;3513;47.664;9.162;2023-02-11T01:54:54;-2.70;99.90
6948;DHT22;3513;47.664;9.162;2023-02-11T01:57:44;-2.70;99.90
6948;DHT22;3513;47.664;9.162;2023-02-11T02:05:42;-2.70;99.90
6948;DHT22;3513;47.664;9.162;2023-02-11T02:08:30;-2.80;99.90
6948;DHT22;3513;47.664;9.162;2023-02-11T02:10:58;-2.80;99.90
6948;DHT22;3513;47.664;9.162;2023-02-11T02:13:26;-2.80;99.90
6948;DHT22;3513;47.664;9.162;2023-02-11T02:15:55;-2.80;99.90
6948;DHT22;3513;47.664;9.162;2023-02-11T02:32:49;-2.80;99.90
6948;DHT22;3513;47.664;9.162;2023-02-11T02:41:10;-2.90;99.90
6948;DHT22;3513;47.664;9.162;2023-02-11T02:43:43;-2.90;99.90
6948;DHT22;3513;47.664;9.162;2023-02-11T02:46:19;-3.00;99.90
6948;DHT22;3513;47.664;9.162;2023-02-11T02:48:45;-3.00;99.90
6948;DHT22;3513;47.664;9.162;2023-02-11T02:51:20;-3.00;99.90
6948;DHT22;3513;47.664;9.162;2023-02-11T02:56:38;-2.90;99.90
6948;DHT22;3513;47.664;9.162;2023-02-11T02:59:26;-2.90;99.90
6948;DHT22;3513;47.664;9.162;2023-02-11T03:01:59;-2.80;99.90
6948;DHT22;3513;47.664;9.162;2023-02-11T03:04:37;-2.90;99.90
6948;DHT22;3513;47.664;9.162;2023-02-11T03:10:18;-2.90;99.90
6948;DHT22;3513;47.664;9.162;2023-02-11T03:12:46;-3.00;99.90
6948;DHT22;3513;47.664;9.162;2023-02-11T03:15:13;-3.10;99.90
6948;DHT22;3513;47.664;9.162;2023-02-11T03:17:41;-3.10;99.90
6948;DHT22;3513;47.664;9.162;2023-02-11T03:20:12;-3.10;99.90
6948;DHT22;3513;47.664;9.162;2023-02-11T03:22:47;-3.10;99.90
6948;DHT22;3513;47.664;9.162;2023-02-11T03:25:15;-3.20;99.90
6948;DHT22;3513;47.664;9.162;2023-02-11T03:28:10;-3.20;99.90
6948;DHT22;3513;47.664;9.162;2023-02-11T03:31:01;-3.30;99.90
6948;DHT22;3513;47.664;9.162;2023-02-11T03:33:39;-3.20;99.90
6948;DHT22;3513;47.664;9.162;2023-02-11T03:36:10;-3.20;99.90
6948;DHT22;3513;47.664;9.162;2023-02-11T03:38:45;-3.20;99.90
6948;DHT22;3513;47.664;9.162;2023-02-11T03:41:12;-3.10;99.90
6948;DHT22;3513;47.664;9.162;2023-02-11T03:43:43;-3.10;99.90
6948;DHT22;3513;47.664;9.162;2023-02-11T03:46:11;-3.00;99.90
6948;DHT22;3513;47.664;9.162;2023-02-11T03:48:41;-3.00;99.90
6948;DHT22;3513;47.664;9.162;2023-02-11T03:51:10;-3.00;99.90
6948;DHT22;3513;47.664;9.162;2023-02-11T03:53:38;-3.00;99.90
6948;DHT22;3513;47.664;9.162;2023-02-11T03:56:07;-3.00;99.90
6948;DHT22;3513;47.664;9.162;2023-02-11T03:58:34;-3.00;99.90
6948;DHT22;3513;47.664;9.162;2023-02-11T04:01:00;-3.10;99.90
6948;DHT22;3513;47.664;9.162;2023-02-11T04:03:27;-4.00;99.90
6948;DHT22;3513;47.664;9.162;2023-02-11T04:05:53;-3.20;99.90
6948;DHT22;3513;47.664;9.162;2023-02-11T04:08:19;-3.20;99.90
6948;DHT22;3513;47.664;9.162;2023-02-11T04:10:45;-3.20;99.90
6948;DHT22;3513;47.664;9.162;2023-02-11T04:13:10;-3.20;99.90
6948;DHT22;3513;47.664;9.162;2023-02-11T04:15:36;-3.20;99.90
6948;DHT22;3513;47.664;9.162;2023-02-11T04:18:02;-3.20;99.90
6948;DHT22;3513;47.664;9.162;2023-02-11T04:20:28;-3.20;99.90
6948;DHT22;3513;47.664;9.162;2023-02-11T04:22:54;-3.10;99.90
6948;DHT22;3513;47.664;9.162;2023-02-11T04:25:19;-3.00;99.90
6948;DHT22;3513;47.664;9.162;2023-02-11T04:27:45;-3.10;99.90
6948;DHT22;3513;47.664;9.162;2023-02-11T04:30:11;-3.00;99.90
6948;DHT22;3513;47.664;9.162;2023-02-11T04:32:37;-3.00;99.90
6948;DHT22;3513;47.664;9.162;2023-02-11T04:37:29;-3.00;99.90
6948;DHT22;3513;47.664;9.162;2023-02-11T04:39:55;-1.60;99.90
6948;DHT22;3513;47.664;9.162;2023-02-11T04:42:21;-2.80;99.90
6948;DHT22;3513;47.664;9.162;2023-02-11T04:44:46;-1.60;99.90
6948;DHT22;3513;47.664;9.162;2023-02-11T04:47:12;-0.90;99.90
6948;DHT22;3513;47.664;9.162;2023-02-11T04:49:39;-1.90;99.90
6948;DHT22;3513;47.664;9.162;2023-02-11T04:52:05;-0.70;99.90
6948;DHT22;3513;47.664;9.162;2023-02-11T04:54:31;-2.90;99.90
6948;DHT22;3513;47.664;9.162;2023-02-11T04:56:56;-2.90;99.90
6948;DHT22;3513;47.664;9.162;2023-02-11T04:59:22;-2.90;99.90
6948;DHT22;3513;47.664;9.162;2023-02-11T05:01:48;-0.60;99.90
6948;DHT22;3513;47.664;9.162;2023-02-11T05:04:14;-2.70;99.90
6948;DHT22;3513;47.664;9.162;2023-02-11T05:06:40;-0.50;99.90
6948;DHT22;3513;47.664;9.162;2023-02-11T05:09:06;-2.90;99.90
6948;DHT22;3513;47.664;9.162;2023-02-11T05:11:32;-3.00;99.90
6948;DHT22;3513;47.664;9.162;2023-02-11T05:13:57;-3.00;99.90
6948;DHT22;3513;47.664;9.162;2023-02-11T05:16:23;-3.00;99.90
6948;DHT22;3513;47.664;9.162;2023-02-11T05:18:49;-0.50;99.90
6948;DHT22;3513;47.664;9.162;2023-02-11T05:21:17;-1.30;99.90
6948;DHT22;3513;47.664;9.162;2023-02-11T05:23:43;-1.80;99.90
6948;DHT22;3513;47.664;9.162;2023-02-11T05:26:10;-3.20;99.90
6948;DHT22;3513;47.664;9.162;2023-02-11T05:28:36;-3.20;99.90
6948;DHT22;3513;47.664;9.162;2023-02-11T05:31:02;-3.20;99.90
6948;DHT22;3513;47.664;9.162;2023-02-11T05:33:28;-3.10;99.90
6948;DHT22;3513;47.664;9.162;2023-02-11T05:35:58;-3.00;99.90
6948;DHT22;3513;47.664;9.162;2023-02-11T05:38:24;-3.00;99.90
6948;DHT22;3513;47.664;9.162;2023-02-11T05:40:50;-2.90;99.90
6948;DHT22;3513;47.664;9.162;2023-02-11T05:43:16;-0.80;99.90
6948;DHT22;3513;47.664;9.162;2023-02-11T05:45:41;-0.70;99.90
6948;DHT22;3513;47.664;9.162;2023-02-11T05:48:07;-2.50;99.90
6948;DHT22;3513;47.664;9.162;2023-02-11T05:50:33;-1.80;99.90
6948;DHT22;3513;47.664;9.162;2023-02-11T05:52:58;-1.90;99.90
6948;DHT22;3513;47.664;9.162;2023-02-11T05:55:24;-0.70;99.90
6948;DHT22;3513;47.664;9.162;2023-02-11T05:57:50;-1.00;99.90
6948;DHT22;3513;47.664;9.162;2023-02-11T06:00:16;-1.40;99.90
6948;DHT22;3513;47.664;9.162;2023-02-11T06:02:44;-3.10;99.90
6948;DHT22;3513;47.664;9.162;2023-02-11T06:05:10;-1.30;99.90
6948;DHT22;3513;47.664;9.162;2023-02-11T06:07:36;-2.80;99.90
6948;DHT22;3513;47.664;9.162;2023-02-11T06:10:01;-0.80;99.90
6948;DHT22;3513;47.664;9.162;2023-02-11T06:12:32;-1.10;99.90
6948;DHT22;3513;47.664;9.162;2023-02-11T06:15:02;-1.20;99.90
6948;DHT22;3513;47.664;9.162;2023-02-11T06:17:28;-2.80;99.90
6948;DHT22;3513;47.664;9.162;2023-02-11T06:19:59;-0.40;99.90
6948;DHT22;3513;47.664;9.162;2023-02-11T06:22:25;-2.80;99.90
6948;DHT22;3513;47.664;9.162;2023-02-11T06:24:51;-3.10;99.90
6948;DHT22;3513;47.664;9.162;2023-02-11T06:27:21;-3.00;99.90
6948;DHT22;3513;47.664;9.162;2023-02-11T06:29:49;-2.20;99.90
6948;DHT22;3513;47.664;9.162;2023-02-11T06:32:18;-3.10;99.90
6948;DHT22;3513;47.664;9.162;2023-02-11T06:34:45;-1.60;99.90
6948;DHT22;3513;47.664;9.162;2023-02-11T06:37:20;-4.20;99.90
6948;DHT22;3513;47.664;9.162;2023-02-11T06:39:46;-2.10;99.90
6948;DHT22;3513;47.664;9.162;2023-02-11T06:42:17;-3.20;99.90
6948;DHT22;3513;47.664;9.162;2023-02-11T06:44:48;-4.40;99.90
6948;DHT22;3513;47.664;9.162;2023-02-11T06:47:26;-3.10;99.90
6948;DHT22;3513;47.664;9.162;2023-02-11T06:50:01;-3.10;99.90
6948;DHT22;3513;47.664;9.162;2023-02-11T06:52:29;-3.20;99.90
6948;DHT22;3513;47.664;9.162;2023-02-11T06:55:16;-2.40;99.90
6948;DHT22;3513;47.664;9.162;2023-02-11T06:57:52;-3.10;99.90
6948;DHT22;3513;47.664;9.162;2023-02-11T07:00:19;-1.70;99.90
6948;DHT22;3513;47.664;9.162;2023-02-11T07:02:54;-3.00;99.90
6948;DHT22;3513;47.664;9.162;2023-02-11T07:05:23;-3.00;99.90
6948;DHT22;3513;47.664;9.162;2023-02-11T07:07:49;-2.10;99.90
6948;DHT22;3513;47.664;9.162;2023-02-11T07:10:24;-2.90;99.90
6948;DHT22;3513;47.664;9.162;2023-02-11T07:13:13;-2.80;99.90
6948;DHT22;3513;47.664;9.162;2023-02-11T07:15:48;-2.70;99.90
6948;DHT22;3513;47.664;9.162;2023-02-11T07:18:17;-4.00;99.90
6948;DHT22;3513;47.664;9.162;2023-02-11T07:20:47;-2.70;99.90
6948;DHT22;3513;47.664;9.162;2023-02-11T07:23:13;-3.30;99.90
6948;DHT22;3513;47.664;9.162;2023-02-11T07:25:38;-3.00;99.90
6948;DHT22;3513;47.664;9.162;2023-02-11T07:28:04;-2.80;99.90
6948;DHT22;3513;47.664;9.162;2023-02-11T07:30:32;-2.70;99.90
6948;DHT22;3513;47.664;9.162;2023-02-11T07:33:01;-0.40;99.90
6948;DHT22;3513;47.664;9.162;2023-02-11T07:35:27;-2.60;99.90
6948;DHT22;3513;47.664;9.162;2023-02-11T07:37:52;-2.50;99.90
6948;DHT22;3513;47.664;9.162;2023-02-11T07:40:18;-2.40;99.90
6948;DHT22;3513;47.664;9.162;2023-02-11T07:42:43;-2.20;99.90
6948;DHT22;3513;47.664;9.162;2023-02-11T07:45:09;-2.10;99.90
6948;DHT22;3513;47.664;9.162;2023-02-11T07:47:35;-2.00;99.90
6948;DHT22;3513;47.664;9.162;2023-02-11T07:50:01;-1.80;99.90
6948;DHT22;3513;47.664;9.162;2023-02-11T07:52:30;-1.50;99.90
6948;DHT22;3513;47.664;9.162;2023-02-11T07:54:56;-1.30;99.90
6948;DHT22;3513;47.664;9.162;2023-02-11T07:57:21;-1.50;99.90
6948;DHT22;3513;47.664;9.162;2023-02-11T07:59:47;-1.60;99.90
6948;DHT22;3513;47.664;9.162;2023-02-11T08:02:13;-1.60;99.90
6948;DHT22;3513;47.664;9.162;2023-02-11T08:04:39;-1.70;99.90
6948;DHT22;3513;47.664;9.162;2023-02-11T08:07:05;-1.70;99.90
6948;DHT22;3513;47.664;9.162;2023-02-11T08:09:32;-1.60;99.90
6948;DHT22;3513;47.664;9.162;2023-02-11T08:11:58;-1.50;99.90
6948;DHT22;3513;47.664;9.162;2023-02-11T08:14:24;-1.30;99.90
6948;DHT22;3513;47.664;9.162;2023-02-11T08:16:51;-1.20;99.90
6948;DHT22;3513;47.664;9.162;2023-02-11T08:19:18;-0.90;99.90
6948;DHT22;3513;47.664;9.162;2023-02-11T08:21:44;-0.70;99.90
6948;DHT22;3513;47.664;9.162;2023-02-11T08:24:11;-0.60;99.90
6948;DHT22;3513;47.664;9.162;2023-02-11T08:26:37;-0.60;99.90
6948;DHT22;3513;47.664;9.162;2023-02-11T08:29:08;-0.60;99.90
6948;DHT22;3513;47.664;9.162;2023-02-11T08:31:37;-0.60;99.90
6948;DHT22;3513;47.664;9.162;2023-02-11T08:34:03;-0.60;99.90
6948;DHT22;3513;47.664;9.162;2023-02-11T08:36:31;-0.60;99.90
6948;DHT22;3513;47.664;9.162;2023-02-11T08:38:59;-0.50;99.90
6948;DHT22;3513;47.664;9.162;2023-02-11T08:41:28;-0.50;99.90
6948;DHT22;3513;47.664;9.162;2023-02-11T08:43:54;-0.40;99.90
6948;DHT22;3513;47.664;9.162;2023-02-11T08:46:20;-0.30;99.90
6948;DHT22;3513;47.664;9.162;2023-02-11T08:48:46;-0.20;99.90
6948;DHT22;3513;47.664;9.162;2023-02-11T08:51:16;-0.10;99.90
6948;DHT22;3513;47.664;9.162;2023-02-11T08:53:42;0.00;99.90
6948;DHT22;3513;47.664;9.162;2023-02-11T08:56:09;0.10;99.90
6948;DHT22;3513;47.664;9.162;2023-02-11T08:58:35;0.20;99.90
6948;DHT22;3513;47.664;9.162;2023-02-11T09:01:00;0.30;99.90
6948;DHT22;3513;47.664;9.162;2023-02-11T09:03:26;0.30;99.90
6948;DHT22;3513;47.664;9.162;2023-02-11T09:05:52;0.40;99.90
6948;DHT22;3513;47.664;9.162;2023-02-11T09:08:18;0.30;99.90
6948;DHT22;3513;47.664;9.162;2023-02-11T09:10:44;0.40;99.90
6948;DHT22;3513;47.664;9.162;2023-02-11T09:13:10;0.50;99.90
6948;DHT22;3513;47.664;9.162;2023-02-11T09:15:36;0.70;99.90
6948;DHT22;3513;47.664;9.162;2023-02-11T09:18:03;0.70;99.90
6948;DHT22;3513;47.664;9.162;2023-02-11T09:20:29;0.80;99.90
6948;DHT22;3513;47.664;9.162;2023-02-11T09:22:57;0.90;99.90
6948;DHT22;3513;47.664;9.162;2023-02-11T09:25:23;0.90;99.90
6948;DHT22;3513;47.664;9.162;2023-02-11T09:27:49;1.00;99.90
6948;DHT22;3513;47.664;9.162;2023-02-11T09:30:16;1.00;99.90
6948;DHT22;3513;47.664;9.162;2023-02-11T09:32:42;1.00;99.90
6948;DHT22;3513;47.664;9.162;2023-02-11T09:35:07;1.00;99.90
6948;DHT22;3513;47.664;9.162;2023-02-11T09:37:33;1.10;99.90
6948;DHT22;3513;47.664;9.162;2023-02-11T09:39:59;1.10;99.90
6948;DHT22;3513;47.664;9.162;2023-02-11T09:42:44;1.10;99.90
6948;DHT22;3513;47.664;9.162;2023-02-11T09:45:26;1.30;99.90
6948;DHT22;3513;47.664;9.162;2023-02-11T09:48:14;1.20;99.90
6948;DHT22;3513;47.664;9.162;2023-02-11T09:50:45;1.20;99.90
6948;DHT22;3513;47.664;9.162;2023-02-11T09:53:25;1.20;99.90
6948;DHT22;3513;47.664;9.162;2023-02-11T09:56:08;1.20;99.90
6948;DHT22;3513;47.664;9.162;2023-02-11T09:58:36;1.30;99.90
6948;DHT22;3513;47.664;9.162;2023-02-11T10:11:41;1.70;99.90
6948;DHT22;3513;47.664;9.162;2023-02-11T10:17:08;1.60;99.90
6948;DHT22;3513;47.664;9.162;2023-02-11T10:22:34;1.70;99.90
6948;DHT22;3513;47.664;9.162;2023-02-11T10:25:23;1.80;99.90
6948;DHT22;3513;47.664;9.162;2023-02-11T10:27:50;1.90;99.90
6948;DHT22;3513;47.664;9.162;2023-02-11T10:30:30;2.00;99.90
6948;DHT22;3513;47.664;9.162;2023-02-11T10:33:06;2.00;99.90
6948;DHT22;3513;47.664;9.162;2023-02-11T10:35:37;2.00;99.90
6948;DHT22;3513;47.664;9.162;2023-02-11T10:38:03;2.00;99.90
6948;DHT22;3513;47.664;9.162;2023-02-11T10:40:30;2.10;99.90
6948;DHT22;3513;47.664;9.162;2023-02-11T10:42:58;2.10;99.90
6948;DHT22;3513;47.664;9.162;2023-02-11T10:48:06;2.10;99.90
6948;DHT22;3513;47.664;9.162;2023-02-11T10:53:37;2.00;99.90
6948;DHT22;3513;47.664;9.162;2023-02-11T10:58:41;2.30;99.70
6948;DHT22;3513;47.664;9.162;2023-02-11T11:01:09;2.40;99.30
6948;DHT22;3513;47.664;9.162;2023-02-11T11:03:50;2.40;98.90
6948;DHT22;3513;47.664;9.162;2023-02-11T11:06:30;2.40;99.20
6948;DHT22;3513;47.664;9.162;2023-02-11T11:08:56;2.30;99.00
6948;DHT22;3513;47.664;9.162;2023-02-11T11:11:24;2.20;98.90
6948;DHT22;3513;47.664;9.162;2023-02-11T11:16:24;2.20;98.60
6948;DHT22;3513;47.664;9.162;2023-02-11T11:19:14;2.30;98.90
6948;DHT22;3513;47.664;9.162;2023-02-11T11:21:54;2.50;98.40
6948;DHT22;3513;47.664;9.162;2023-02-11T11:24:22;2.60;98.00
6948;DHT22;3513;47.664;9.162;2023-02-11T11:26:53;2.70;97.70
6948;DHT22;3513;47.664;9.162;2023-02-11T11:29:36;2.80;97.30
6948;DHT22;3513;47.664;9.162;2023-02-11T11:32:12;2.80;96.70
6948;DHT22;3513;47.664;9.162;2023-02-11T11:34:41;2.90;96.40
6948;DHT22;3513;47.664;9.162;2023-02-11T11:37:18;3.10;95.90
6948;DHT22;3513;47.664;9.162;2023-02-11T11:39:56;5.70;96.30
6948;DHT22;3513;47.664;9.162;2023-02-11T11:42:28;3.40;94.60
6948;DHT22;3513;47.664;9.162;2023-02-11T11:45:23;3.40;94.30
6948;DHT22;3513;47.664;9.162;2023-02-11T11:51:03;3.70;93.10
6948;DHT22;3513;47.664;9.162;2023-02-11T11:53:45;3.80;92.60
6948;DHT22;3513;47.664;9.162;2023-02-11T11:56:19;3.90;92.20
6948;DHT22;3513;47.664;9.162;2023-02-11T11:58:46;4.00;91.70
6948;DHT22;3513;47.664;9.162;2023-02-11T12:14:42;4.50;88.50
6948;DHT22;3513;47.664;9.162;2023-02-11T12:20:11;4.80;87.10
6948;DHT22;3513;47.664;9.162;2023-02-11T12:23:04;4.90;86.50
6948;DHT22;3513;47.664;9.162;2023-02-11T12:26:13;5.00;87.10
6948;DHT22;3513;47.664;9.162;2023-02-11T12:28:51;5.30;86.90
6948;DHT22;3513;47.664;9.162;2023-02-11T12:31:43;5.50;86.40
6948;DHT22;3513;47.664;9.162;2023-02-11T12:34:34;5.70;85.20
6948;DHT22;3513;47.664;9.162;2023-02-11T12:39:42;5.80;82.40
6948;DHT22;3513;47.664;9.162;2023-02-11T12:42:43;5.90;82.20
6948;DHT22;3513;47.664;9.162;2023-02-11T12:45:37;6.00;82.50
6948;DHT22;3513;47.664;9.162;2023-02-11T12:56:39;6.40;78.70
6948;DHT22;3513;47.664;9.162;2023-02-11T12:59:38;6.60;77.40
6948;DHT22;3513;47.664;9.162;2023-02-11T13:07:45;8.60;77.40
6948;DHT22;3513;47.664;9.162;2023-02-11T13:10:33;7.40;75.90
6948;DHT22;3513;47.664;9.162;2023-02-11T13:13:01;7.40;75.10
6948;DHT22;3513;47.664;9.162;2023-02-11T13:15:50;7.60;76.60
6948;DHT22;3513;47.664;9.162;2023-02-11T13:21:30;8.60;73.60
6948;DHT22;3513;47.664;9.162;2023-02-11T13:24:35;9.10;73.90
6948;DHT22;3513;47.664;9.162;2023-02-11T13:35:38;10.90;59.20
6948;DHT22;3513;47.664;9.162;2023-02-11T13:38:16;11.50;53.60
6948;DHT22;3513;47.664;9.162;2023-02-11T13:40:43;11.70;51.40
6948;DHT22;3513;47.664;9.162;2023-02-11T13:43:23;11.80;51.20
6948;DHT22;3513;47.664;9.162;2023-02-11T13:45:50;12.00;53.20
6948;DHT22;3513;47.664;9.162;2023-02-11T13:48:28;12.20;54.30
6948;DHT22;3513;47.664;9.162;2023-02-11T13:51:01;12.70;52.80
6948;DHT22;3513;47.664;9.162;2023-02-11T13:53:27;13.20;52.80
6948;DHT22;3513;47.664;9.162;2023-02-11T13:56:08;13.40;51.80
6948;DHT22;3513;47.664;9.162;2023-02-11T13:58:37;13.30;52.20
6948;DHT22;3513;47.664;9.162;2023-02-11T14:11:09;13.70;50.40
6948;DHT22;3513;47.664;9.162;2023-02-11T14:16:23;13.60;51.40
6948;DHT22;3513;47.664;9.162;2023-02-11T14:23:53;13.10;50.10
6948;DHT22;3513;47.664;9.162;2023-02-11T14:26:52;12.90;51.30
6948;DHT22;3513;47.664;9.162;2023-02-11T14:29:40;12.90;53.70
6948;DHT22;3513;47.664;9.162;2023-02-11T14:40:23;12.60;55.30
6948;DHT22;3513;47.664;9.162;2023-02-11T14:42:52;12.40;55.30
6948;DHT22;3513;47.664;9.162;2023-02-11T14:45:22;12.20;55.70
6948;DHT22;3513;47.664;9.162;2023-02-11T14:50:32;12.00;56.60
6948;DHT22;3513;47.664;9.162;2023-02-11T14:53:00;11.50;56.90
6948;DHT22;3513;47.664;9.162;2023-02-11T14:55:32;11.20;57.50
6948;DHT22;3513;47.664;9.162;2023-02-11T14:58:16;11.00;58.20
6948;DHT22;3513;47.664;9.162;2023-02-11T15:00:48;10.70;58.70
6948;DHT22;3513;47.664;9.162;2023-02-11T15:08:25;9.90;61.60
6948;DHT22;3513;47.664;9.162;2023-02-11T15:10:52;9.70;62.50
6948;DHT22;3513;47.664;9.162;2023-02-11T15:13:21;9.50;63.20
6948;DHT22;3513;47.664;9.162;2023-02-11T15:15:54;9.40;63.80
6948;DHT22;3513;47.664;9.162;2023-02-11T15:18:24;9.30;64.70
6948;DHT22;3513;47.664;9.162;2023-02-11T15:20:51;9.10;65.10
6948;DHT22;3513;47.664;9.162;2023-02-11T15:23:22;9.00;67.40
6948;DHT22;3513;47.664;9.162;2023-02-11T15:25:49;9.70;69.70
6948;DHT22;3513;47.664;9.162;2023-02-11T15:28:26;8.70;69.50
6948;DHT22;3513;47.664;9.162;2023-02-11T15:31:01;8.50;69.90
6948;DHT22;3513;47.664;9.162;2023-02-11T15:33:28;8.70;70.50
6948;DHT22;3513;47.664;9.162;2023-02-11T15:35:58;8.60;69.90
6948;DHT22;3513;47.664;9.162;2023-02-11T15:38:24;8.10;69.70
6948;DHT22;3513;47.664;9.162;2023-02-11T15:40:55;8.00;70.20
6948;DHT22;3513;47.664;9.162;2023-02-11T15:43:21;8.90;71.50
6948;DHT22;3513;47.664;9.162;2023-02-11T15:48:21;7.70;72.10
6948;DHT22;3513;47.664;9.162;2023-02-11T15:50:53;7.60;73.50
6948;DHT22;3513;47.664;9.162;2023-02-11T15:53:39;7.50;74.70
6948;DHT22;3513;47.664;9.162;2023-02-11T15:56:16;7.40;75.20
6948;DHT22;3513;47.664;9.162;2023-02-11T15:58:45;7.30;75.80
6948;DHT22;3513;47.664;9.162;2023-02-11T16:01:12;7.30;76.20
6948;DHT22;3513;47.664;9.162;2023-02-11T16:03:40;7.30;75.80
6948;DHT22;3513;47.664;9.162;2023-02-11T16:11:35;7.60;76.10
6948;DHT22;3513;47.664;9.162;2023-02-11T16:14:20;7.90;75.20
6948;DHT22;3513;47.664;9.162;2023-02-11T16:16:48;8.20;75.40
6948;DHT22;3513;47.664;9.162;2023-02-11T16:19:20;8.50;75.00
6948;DHT22;3513;47.664;9.162;2023-02-11T16:21:46;9.90;75.40
6948;DHT22;3513;47.664;9.162;2023-02-11T16:24:23;8.90;74.20
6948;DHT22;3513;47.664;9.162;2023-02-11T16:26:54;8.80;74.30
6948;DHT22;3513;47.664;9.162;2023-02-11T16:29:29;8.60;76.10
6948;DHT22;3513;47.664;9.162;2023-02-11T16:32:08;8.20;78.20
6948;DHT22;3513;47.664;9.162;2023-02-11T16:34:34;7.80;80.10
6948;DHT22;3513;47.664;9.162;2023-02-11T16:37:03;7.40;82.10
6948;DHT22;3513;47.664;9.162;2023-02-11T16:39:29;7.20;84.50
6948;DHT22;3513;47.664;9.162;2023-02-11T16:41:54;6.90;86.20
6948;DHT22;3513;47.664;9.162;2023-02-11T16:44:21;6.70;88.00
6948;DHT22;3513;47.664;9.162;2023-02-11T16:46:47;6.40;89.50
6948;DHT22;3513;47.664;9.162;2023-02-11T16:49:39;6.30;90.80
6948;DHT22;3513;47.664;9.162;2023-02-11T16:52:07;6.10;91.50
6948;DHT22;3513;47.664;9.162;2023-02-11T16:54:33;6.00;92.20
6948;DHT22;3513;47.664;9.162;2023-02-11T16:56:59;5.90;92.90
6948;DHT22;3513;47.664;9.162;2023-02-11T16:59:25;5.80;93.60
6948;DHT22;3513;47.664;9.162;2023-02-11T17:01:52;5.60;94.10
6948;DHT22;3513;47.664;9.162;2023-02-11T17:04:25;5.50;94.70
6948;DHT22;3513;47.664;9.162;2023-02-11T17:06:51;5.40;95.20
6948;DHT22;3513;47.664;9.162;2023-02-11T17:09:19;5.30;95.70
6948;DHT22;3513;47.664;9.162;2023-02-11T17:11:45;5.20;96.10
6948;DHT22;3513;47.664;9.162;2023-02-11T17:14:10;5.10;96.70
6948;DHT22;3513;47.664;9.162;2023-02-11T17:16:36;5.00;97.00
6948;DHT22;3513;47.664;9.162;2023-02-11T17:19:02;4.90;97.40
6948;DHT22;3513;47.664;9.162;2023-02-11T17:21:27;4.90;97.90
6948;DHT22;3513;47.664;9.162;2023-02-11T17:23:55;4.70;98.00
6948;DHT22;3513;47.664;9.162;2023-02-11T17:26:21;4.60;98.40
6948;DHT22;3513;47.664;9.162;2023-02-11T17:28:46;4.50;98.80
6948;DHT22;3513;47.664;9.162;2023-02-11T17:31:12;4.40;99.10
6948;DHT22;3513;47.664;9.162;2023-02-11T17:33:38;4.30;99.30
6948;DHT22;3513;47.664;9.162;2023-02-11T17:36:08;4.30;99.60
6948;DHT22;3513;47.664;9.162;2023-02-11T17:38:35;4.30;99.90
6948;DHT22;3513;47.664;9.162;2023-02-11T17:41:02;4.40;99.90
6948;DHT22;3513;47.664;9.162;2023-02-11T17:43:29;4.30;99.30
6948;DHT22;3513;47.664;9.162;2023-02-11T17:45:56;4.20;99.10
6948;DHT22;3513;47.664;9.162;2023-02-11T17:48:22;4.00;98.90
6948;DHT22;3513;47.664;9.162;2023-02-11T17:50:48;3.80;98.90
6948;DHT22;3513;47.664;9.162;2023-02-11T17:53:14;3.60;99.10
6948;DHT22;3513;47.664;9.162;2023-02-11T17:55:40;3.40;99.20
6948;DHT22;3513;47.664;9.162;2023-02-11T17:58:06;3.30;99.50
6948;DHT22;3513;47.664;9.162;2023-02-11T18:00:32;3.10;99.70
6948;DHT22;3513;47.664;9.162;2023-02-11T18:02:57;3.00;99.90
6948;DHT22;3513;47.664;9.162;2023-02-11T18:05:27;2.90;99.90
6948;DHT22;3513;47.664;9.162;2023-02-11T18:07:53;2.80;99.90
6948;DHT22;3513;47.664;9.162;2023-02-11T18:10:19;2.80;99.90
6948;DHT22;3513;47.664;9.162;2023-02-11T18:12:45;2.80;99.90
6948;DHT22;3513;47.664;9.162;2023-02-11T18:15:11;2.80;99.90
6948;DHT22;3513;47.664;9.162;2023-02-11T18:17:37;2.80;99.90
6948;DHT22;3513;47.664;9.162;2023-02-11T18:20:02;2.90;99.90
6948;DHT22;3513;47.664;9.162;2023-02-11T18:22:29;2.80;99.90
6948;DHT22;3513;47.664;9.162;2023-02-11T18:25:00;2.60;99.60
6948;DHT22;3513;47.664;9.162;2023-02-11T18:27:26;2.40;99.80
6948;DHT22;3513;47.664;9.162;2023-02-11T18:29:52;2.20;99.90
6948;DHT22;3513;47.664;9.162;2023-02-11T18:32:18;2.10;99.90
6948;DHT22;3513;47.664;9.162;2023-02-11T18:34:43;2.10;99.90
6948;DHT22;3513;47.664;9.162;2023-02-11T18:37:09;2.00;99.90
6948;DHT22;3513;47.664;9.162;2023-02-11T18:39:36;1.90;99.90
6948;DHT22;3513;47.664;9.162;2023-02-11T18:42:01;1.80;99.90
6948;DHT22;3513;47.664;9.162;2023-02-11T18:44:27;1.70;99.90
6948;DHT22;3513;47.664;9.162;2023-02-11T18:46:53;1.60;99.90
6948;DHT22;3513;47.664;9.162;2023-02-11T18:49:19;1.60;99.90
6948;DHT22;3513;47.664;9.162;2023-02-11T18:51:45;1.50;99.90
6948;DHT22;3513;47.664;9.162;2023-02-11T18:54:11;1.40;99.90
6948;DHT22;3513;47.664;9.162;2023-02-11T18:56:37;1.30;99.90
6948;DHT22;3513;47.664;9.162;2023-02-11T18:59:03;1.30;99.90